sensor_id;sensor_type;location;lat;lon;timestamp;temperature;humidity
12568;DHT22;6349;50.904;6.136;2023-06-26T00:00:32;24.30;99.90
12568;DHT22;6349;50.904;6.136;2023-06-26T00:02:34;24.20;99.90
12568;DHT22;6349;50.904;6.136;2023-06-26T00:04:36;24.10;99.90
12568;DHT22;6349;50.904;6.136;2023-06-26T00:06:38;24.10;99.90
12568;DHT22;6349;50.904;6.136;2023-06-26T00:08:40;24.00;99.90
12568;DHT22;6349;50.904;6.136;2023-06-26T00:10:42;24.10;99.90
12568;DHT22;6349;50.904;6.136;2023-06-26T00:12:44;24.00;99.90
12568;DHT22;6349;50.904;6.136;2023-06-26T00:14:45;23.90;99.90
12568;DHT22;6349;50.904;6.136;2023-06-26T00:16:48;24.00;99.90
12568;DHT22;6349;50.904;6.136;2023-06-26T00:18:53;23.90;99.90
12568;DHT22;6349;50.904;6.136;2023-06-26T00:20:55;23.90;99.90
12568;DHT22;6349;50.904;6.136;2023-06-26T00:22:57;23.90;99.90
12568;DHT22;6349;50.904;6.136;2023-06-26T00:25:00;23.90;99.90
12568;DHT22;6349;50.904;6.136;2023-06-26T00:27:02;23.90;99.90
12568;DHT22;6349;50.904;6.136;2023-06-26T00:29:04;23.80;99.90
12568;DHT22;6349;50.904;6.136;2023-06-26T00:31:06;23.80;99.90
12568;DHT22;6349;50.904;6.136;2023-06-26T00:33:07;23.80;99.90
12568;DHT22;6349;50.904;6.136;2023-06-26T00:35:10;23.80;99.90
12568;DHT22;6349;50.904;6.136;2023-06-26T00:37:11;23.80;99.90
12568;DHT22;6349;50.904;6.136;2023-06-26T00:39:13;23.80;99.90
12568;DHT22;6349;50.904;6.136;2023-06-26T00:41:15;23.80;99.90
12568;DHT22;6349;50.904;6.136;2023-06-26T00:43:17;23.90;99.90
12568;DHT22;6349;50.904;6.136;2023-06-26T00:45:19;23.90;99.90
12568;DHT22;6349;50.904;6.136;2023-06-26T00:47:21;23.80;99.90
12568;DHT22;6349;50.904;6.136;2023-06-26T00:49:23;23.90;99.90
12568;DHT22;6349;50.904;6.136;2023-06-26T00:51:27;23.90;99.90
12568;DHT22;6349;50.904;6.136;2023-06-26T00:53:30;23.80;99.90
12568;DHT22;6349;50.904;6.136;2023-06-26T00:55:32;23.80;99.90
12568;DHT22;6349;50.904;6.136;2023-06-26T00:57:34;23.80;99.90
12568;DHT22;6349;50.904;6.136;2023-06-26T00:59:36;23.70;99.90
12568;DHT22;6349;50.904;6.136;2023-06-26T01:01:38;23.70;99.90
12568;DHT22;6349;50.904;6.136;2023-06-26T01:03:40;23.70;99.90
12568;DHT22;6349;50.904;6.136;2023-06-26T01:05:42;23.60;99.90
12568;DHT22;6349;50.904;6.136;2023-06-26T01:07:48;23.60;99.90
12568;DHT22;6349;50.904;6.136;2023-06-26T01:09:50;23.50;99.90
12568;DHT22;6349;50.904;6.136;2023-06-26T01:11:52;23.40;99.90
12568;DHT22;6349;50.904;6.136;2023-06-26T01:13:54;23.40;99.90
12568;DHT22;6349;50.904;6.136;2023-06-26T01:15:58;23.30;99.90
12568;DHT22;6349;50.904;6.136;2023-06-26T01:18:01;23.30;99.90
12568;DHT22;6349;50.904;6.136;2023-06-26T01:20:06;23.30;99.90
12568;DHT22;6349;50.904;6.136;2023-06-26T01:22:31;23.30;99.90
12568;DHT22;6349;50.904;6.136;2023-06-26T01:27:25;23.30;99.90
12568;DHT22;6349;50.904;6.136;2023-06-26T01:29:28;23.30;99.90
12568;DHT22;6349;50.904;6.136;2023-06-26T01:31:32;23.40;99.90
12568;DHT22;6349;50.904;6.136;2023-06-26T01:33:37;23.30;99.90
12568;DHT22;6349;50.904;6.136;2023-06-26T01:35:39;23.30;99.90
12568;DHT22;6349;50.904;6.136;2023-06-26T01:37:41;23.20;99.90
12568;DHT22;6349;50.904;6.136;2023-06-26T01:39:43;23.20;99.90
12568;DHT22;6349;50.904;6.136;2023-06-26T01:41:45;23.20;99.90
12568;DHT22;6349;50.904;6.136;2023-06-26T01:46:39;23.20;99.90
12568;DHT22;6349;50.904;6.136;2023-06-26T01:48:50;23.10;99.90
12568;DHT22;6349;50.904;6.136;2023-06-26T01:50:58;23.10;99.90
12568;DHT22;6349;50.904;6.136;2023-06-26T01:53:10;23.00;99.90
12568;DHT22;6349;50.904;6.136;2023-06-26T01:55:22;23.00;99.90
12568;DHT22;6349;50.904;6.136;2023-06-26T01:57:26;23.10;99.90
12568;DHT22;6349;50.904;6.136;2023-06-26T01:59:34;22.90;99.90
12568;DHT22;6349;50.904;6.136;2023-06-26T02:01:36;22.90;99.90
12568;DHT22;6349;50.904;6.136;2023-06-26T02:03:38;22.90;99.90
12568;DHT22;6349;50.904;6.136;2023-06-26T02:05:40;22.80;99.90
12568;DHT22;6349;50.904;6.136;2023-06-26T02:07:42;22.80;99.90
12568;DHT22;6349;50.904;6.136;2023-06-26T02:09:45;22.60;99.90
12568;DHT22;6349;50.904;6.136;2023-06-26T02:11:47;22.70;99.90
12568;DHT22;6349;50.904;6.136;2023-06-26T02:13:49;22.60;99.90
12568;DHT22;6349;50.904;6.136;2023-06-26T02:15:51;22.50;99.90
12568;DHT22;6349;50.904;6.136;2023-06-26T02:17:52;22.50;99.90
12568;DHT22;6349;50.904;6.136;2023-06-26T02:19:54;22.50;99.90
12568;DHT22;6349;50.904;6.136;2023-06-26T02:21:56;22.50;99.90
12568;DHT22;6349;50.904;6.136;2023-06-26T02:23:58;22.40;99.90
12568;DHT22;6349;50.904;6.136;2023-06-26T02:26:00;22.40;99.90
12568;DHT22;6349;50.904;6.136;2023-06-26T02:28:02;22.30;99.90
12568;DHT22;6349;50.904;6.136;2023-06-26T02:30:04;22.30;99.90
12568;DHT22;6349;50.904;6.136;2023-06-26T02:32:06;22.20;99.90
12568;DHT22;6349;50.904;6.136;2023-06-26T02:34:08;22.10;99.90
12568;DHT22;6349;50.904;6.136;2023-06-26T02:36:17;22.20;99.90
12568;DHT22;6349;50.904;6.136;2023-06-26T02:38:19;22.20;99.90
12568;DHT22;6349;50.904;6.136;2023-06-26T02:40:21;22.10;99.90
12568;DHT22;6349;50.904;6.136;2023-06-26T02:42:23;22.10;99.90
12568;DHT22;6349;50.904;6.136;2023-06-26T02:44:25;22.00;99.90
12568;DHT22;6349;50.904;6.136;2023-06-26T02:46:27;22.10;99.90
12568;DHT22;6349;50.904;6.136;2023-06-26T02:48:29;22.10;99.90
12568;DHT22;6349;50.904;6.136;2023-06-26T02:50:31;22.20;99.90
12568;DHT22;6349;50.904;6.136;2023-06-26T02:52:32;22.10;99.90
12568;DHT22;6349;50.904;6.136;2023-06-26T02:54:34;22.10;99.90
12568;DHT22;6349;50.904;6.136;2023-06-26T02:56:36;22.10;99.90
12568;DHT22;6349;50.904;6.136;2023-06-26T02:58:39;22.00;99.90
12568;DHT22;6349;50.904;6.136;2023-06-26T03:00:41;22.00;99.90
12568;DHT22;6349;50.904;6.136;2023-06-26T03:02:42;21.90;99.90
12568;DHT22;6349;50.904;6.136;2023-06-26T03:04:44;21.90;99.90
12568;DHT22;6349;50.904;6.136;2023-06-26T03:06:46;21.90;99.90
12568;DHT22;6349;50.904;6.136;2023-06-26T03:08:48;21.90;99.90
12568;DHT22;6349;50.904;6.136;2023-06-26T03:10:50;21.80;99.90
12568;DHT22;6349;50.904;6.136;2023-06-26T03:12:52;21.80;99.90
12568;DHT22;6349;50.904;6.136;2023-06-26T03:14:54;21.70;99.90
12568;DHT22;6349;50.904;6.136;2023-06-26T03:16:55;21.70;99.90
12568;DHT22;6349;50.904;6.136;2023-06-26T03:18:59;21.60;99.90
12568;DHT22;6349;50.904;6.136;2023-06-26T03:21:02;21.60;99.90
12568;DHT22;6349;50.904;6.136;2023-06-26T03:23:04;21.60;99.90
12568;DHT22;6349;50.904;6.136;2023-06-26T03:25:06;21.60;99.90
12568;DHT22;6349;50.904;6.136;2023-06-26T03:27:08;21.50;99.90
12568;DHT22;6349;50.904;6.136;2023-06-26T03:29:11;21.50;99.90
12568;DHT22;6349;50.904;6.136;2023-06-26T03:31:13;21.40;99.90
12568;DHT22;6349;50.904;6.136;2023-06-26T03:33:15;21.40;99.90
12568;DHT22;6349;50.904;6.136;2023-06-26T03:35:16;21.30;99.90
12568;DHT22;6349;50.904;6.136;2023-06-26T03:37:18;21.20;99.90
12568;DHT22;6349;50.904;6.136;2023-06-26T03:39:21;21.20;99.90
12568;DHT22;6349;50.904;6.136;2023-06-26T03:41:23;21.30;99.90
12568;DHT22;6349;50.904;6.136;2023-06-26T03:43:25;21.20;99.90
12568;DHT22;6349;50.904;6.136;2023-06-26T03:45:27;21.20;99.90
12568;DHT22;6349;50.904;6.136;2023-06-26T03:47:29;21.20;99.90
12568;DHT22;6349;50.904;6.136;2023-06-26T03:49:30;21.20;99.90
12568;DHT22;6349;50.904;6.136;2023-06-26T03:51:30;21.10;99.90
12568;DHT22;6349;50.904;6.136;2023-06-26T03:53:31;21.20;99.90
12568;DHT22;6349;50.904;6.136;2023-06-26T03:55:32;21.10;99.90
12568;DHT22;6349;50.904;6.136;2023-06-26T03:57:35;21.10;99.90
12568;DHT22;6349;50.904;6.136;2023-06-26T03:59:37;21.00;99.90
12568;DHT22;6349;50.904;6.136;2023-06-26T04:01:39;21.00;99.90
12568;DHT22;6349;50.904;6.136;2023-06-26T04:03:41;20.90;99.90
12568;DHT22;6349;50.904;6.136;2023-06-26T04:05:42;20.80;99.90
12568;DHT22;6349;50.904;6.136;2023-06-26T04:07:44;20.80;99.90
12568;DHT22;6349;50.904;6.136;2023-06-26T04:09:46;20.80;99.90
12568;DHT22;6349;50.904;6.136;2023-06-26T04:11:48;20.70;99.90
12568;DHT22;6349;50.904;6.136;2023-06-26T04:13:50;20.70;99.90
12568;DHT22;6349;50.904;6.136;2023-06-26T04:15:52;20.70;99.90
12568;DHT22;6349;50.904;6.136;2023-06-26T04:17:54;20.70;99.90
12568;DHT22;6349;50.904;6.136;2023-06-26T04:19:55;20.70;99.90
12568;DHT22;6349;50.904;6.136;2023-06-26T04:21:57;20.60;99.90
12568;DHT22;6349;50.904;6.136;2023-06-26T04:23:59;20.60;99.90
12568;DHT22;6349;50.904;6.136;2023-06-26T04:26:01;20.50;99.90
12568;DHT22;6349;50.904;6.136;2023-06-26T04:28:04;20.50;99.90
12568;DHT22;6349;50.904;6.136;2023-06-26T04:30:06;20.40;99.90
12568;DHT22;6349;50.904;6.136;2023-06-26T04:32:08;20.40;99.90
12568;DHT22;6349;50.904;6.136;2023-06-26T04:34:10;20.40;99.90
12568;DHT22;6349;50.904;6.136;2023-06-26T04:36:12;20.40;99.90
12568;DHT22;6349;50.904;6.136;2023-06-26T04:38:15;20.40;99.90
12568;DHT22;6349;50.904;6.136;2023-06-26T04:40:17;20.40;99.90
12568;DHT22;6349;50.904;6.136;2023-06-26T04:42:18;20.30;99.90
12568;DHT22;6349;50.904;6.136;2023-06-26T04:44:23;20.40;99.90
12568;DHT22;6349;50.904;6.136;2023-06-26T04:46:24;20.30;99.90
12568;DHT22;6349;50.904;6.136;2023-06-26T04:48:27;20.30;99.90
12568;DHT22;6349;50.904;6.136;2023-06-26T04:50:30;20.40;99.90
12568;DHT22;6349;50.904;6.136;2023-06-26T04:52:32;20.30;99.90
12568;DHT22;6349;50.904;6.136;2023-06-26T04:54:34;20.30;99.90
12568;DHT22;6349;50.904;6.136;2023-06-26T04:56:36;20.30;99.90
12568;DHT22;6349;50.904;6.136;2023-06-26T04:58:38;20.30;99.90
12568;DHT22;6349;50.904;6.136;2023-06-26T05:00:40;20.30;99.90
12568;DHT22;6349;50.904;6.136;2023-06-26T05:02:44;20.30;99.90
12568;DHT22;6349;50.904;6.136;2023-06-26T05:04:46;20.30;99.90
12568;DHT22;6349;50.904;6.136;2023-06-26T05:06:48;20.20;99.90
12568;DHT22;6349;50.904;6.136;2023-06-26T05:08:50;20.20;99.90
12568;DHT22;6349;50.904;6.136;2023-06-26T05:10:52;20.20;99.90
12568;DHT22;6349;50.904;6.136;2023-06-26T05:13:00;20.00;99.90
12568;DHT22;6349;50.904;6.136;2023-06-26T05:15:02;20.00;99.90
12568;DHT22;6349;50.904;6.136;2023-06-26T05:17:04;20.00;99.90
12568;DHT22;6349;50.904;6.136;2023-06-26T05:19:06;20.10;99.90
12568;DHT22;6349;50.904;6.136;2023-06-26T05:21:08;20.00;99.90
12568;DHT22;6349;50.904;6.136;2023-06-26T05:23:11;20.00;99.90
12568;DHT22;6349;50.904;6.136;2023-06-26T05:25:14;20.00;99.90
12568;DHT22;6349;50.904;6.136;2023-06-26T05:27:17;20.00;99.90
12568;DHT22;6349;50.904;6.136;2023-06-26T05:29:23;19.90;99.90
12568;DHT22;6349;50.904;6.136;2023-06-26T05:31:25;19.90;99.90
12568;DHT22;6349;50.904;6.136;2023-06-26T05:33:28;19.90;99.90
12568;DHT22;6349;50.904;6.136;2023-06-26T05:35:30;19.90;99.90
12568;DHT22;6349;50.904;6.136;2023-06-26T05:37:33;20.10;99.90
12568;DHT22;6349;50.904;6.136;2023-06-26T05:39:36;20.20;99.90
12568;DHT22;6349;50.904;6.136;2023-06-26T05:41:37;20.20;99.90
12568;DHT22;6349;50.904;6.136;2023-06-26T05:43:40;20.20;99.90
12568;DHT22;6349;50.904;6.136;2023-06-26T05:45:42;20.20;99.90
12568;DHT22;6349;50.904;6.136;2023-06-26T05:47:44;20.30;99.90
12568;DHT22;6349;50.904;6.136;2023-06-26T05:49:46;20.30;99.90
12568;DHT22;6349;50.904;6.136;2023-06-26T05:51:49;20.30;99.90
12568;DHT22;6349;50.904;6.136;2023-06-26T05:53:49;20.30;99.90
12568;DHT22;6349;50.904;6.136;2023-06-26T05:55:52;20.30;99.90
12568;DHT22;6349;50.904;6.136;2023-06-26T05:57:53;20.30;99.90
12568;DHT22;6349;50.904;6.136;2023-06-26T05:59:56;20.30;99.90
12568;DHT22;6349;50.904;6.136;2023-06-26T06:01:58;20.30;99.90
12568;DHT22;6349;50.904;6.136;2023-06-26T06:04:00;20.30;99.90
12568;DHT22;6349;50.904;6.136;2023-06-26T06:06:01;20.30;99.90
12568;DHT22;6349;50.904;6.136;2023-06-26T06:08:04;20.30;99.90
12568;DHT22;6349;50.904;6.136;2023-06-26T06:10:06;20.30;99.90
12568;DHT22;6349;50.904;6.136;2023-06-26T06:12:08;20.40;99.90
12568;DHT22;6349;50.904;6.136;2023-06-26T06:14:10;20.40;99.90
12568;DHT22;6349;50.904;6.136;2023-06-26T06:16:11;20.40;99.90
12568;DHT22;6349;50.904;6.136;2023-06-26T06:18:13;20.40;99.90
12568;DHT22;6349;50.904;6.136;2023-06-26T06:20:17;20.40;99.90
12568;DHT22;6349;50.904;6.136;2023-06-26T06:22:21;20.40;99.90
12568;DHT22;6349;50.904;6.136;2023-06-26T06:24:22;20.40;99.90
12568;DHT22;6349;50.904;6.136;2023-06-26T06:26:24;20.50;99.90
12568;DHT22;6349;50.904;6.136;2023-06-26T06:28:26;20.50;99.90
12568;DHT22;6349;50.904;6.136;2023-06-26T06:30:28;20.50;99.90
12568;DHT22;6349;50.904;6.136;2023-06-26T06:32:30;20.50;99.90
12568;DHT22;6349;50.904;6.136;2023-06-26T06:34:32;20.50;99.90
12568;DHT22;6349;50.904;6.136;2023-06-26T06:36:34;20.50;99.90
12568;DHT22;6349;50.904;6.136;2023-06-26T06:38:36;20.50;99.90
12568;DHT22;6349;50.904;6.136;2023-06-26T06:40:38;20.50;99.90
12568;DHT22;6349;50.904;6.136;2023-06-26T06:42:39;20.50;99.90
12568;DHT22;6349;50.904;6.136;2023-06-26T06:44:41;20.60;99.90
12568;DHT22;6349;50.904;6.136;2023-06-26T06:46:43;20.50;99.90
12568;DHT22;6349;50.904;6.136;2023-06-26T06:48:45;20.50;99.90
12568;DHT22;6349;50.904;6.136;2023-06-26T06:50:48;20.50;99.90
12568;DHT22;6349;50.904;6.136;2023-06-26T06:52:50;20.40;99.90
12568;DHT22;6349;50.904;6.136;2023-06-26T06:54:55;20.40;99.90
12568;DHT22;6349;50.904;6.136;2023-06-26T06:56:57;20.50;99.90
12568;DHT22;6349;50.904;6.136;2023-06-26T06:58:59;20.40;99.90
12568;DHT22;6349;50.904;6.136;2023-06-26T07:01:01;20.40;99.90
12568;DHT22;6349;50.904;6.136;2023-06-26T07:03:04;20.40;99.90
12568;DHT22;6349;50.904;6.136;2023-06-26T07:05:06;20.40;99.90
12568;DHT22;6349;50.904;6.136;2023-06-26T07:07:07;20.40;99.90
12568;DHT22;6349;50.904;6.136;2023-06-26T07:09:11;20.50;99.90
12568;DHT22;6349;50.904;6.136;2023-06-26T07:11:13;20.50;99.90
12568;DHT22;6349;50.904;6.136;2023-06-26T07:13:15;20.50;99.90
12568;DHT22;6349;50.904;6.136;2023-06-26T07:15:17;20.50;99.90
12568;DHT22;6349;50.904;6.136;2023-06-26T07:17:19;20.50;99.90
12568;DHT22;6349;50.904;6.136;2023-06-26T07:19:21;20.60;99.90
12568;DHT22;6349;50.904;6.136;2023-06-26T07:21:23;20.70;99.90
12568;DHT22;6349;50.904;6.136;2023-06-26T07:23:24;20.70;99.90
12568;DHT22;6349;50.904;6.136;2023-06-26T07:25:26;20.70;99.90
12568;DHT22;6349;50.904;6.136;2023-06-26T07:27:28;20.70;99.90
12568;DHT22;6349;50.904;6.136;2023-06-26T07:29:30;20.70;99.90
12568;DHT22;6349;50.904;6.136;2023-06-26T07:31:32;20.80;99.90
12568;DHT22;6349;50.904;6.136;2023-06-26T07:33:34;20.80;99.90
12568;DHT22;6349;50.904;6.136;2023-06-26T07:35:37;20.80;99.90
12568;DHT22;6349;50.904;6.136;2023-06-26T07:37:39;20.90;99.90
12568;DHT22;6349;50.904;6.136;2023-06-26T07:39:42;20.90;99.90
12568;DHT22;6349;50.904;6.136;2023-06-26T07:41:44;21.00;99.90
12568;DHT22;6349;50.904;6.136;2023-06-26T07:43:46;20.90;99.90
12568;DHT22;6349;50.904;6.136;2023-06-26T07:45:47;21.00;99.90
12568;DHT22;6349;50.904;6.136;2023-06-26T07:47:49;21.00;99.90
12568;DHT22;6349;50.904;6.136;2023-06-26T07:49:51;21.10;99.90
12568;DHT22;6349;50.904;6.136;2023-06-26T07:51:53;21.10;99.90
12568;DHT22;6349;50.904;6.136;2023-06-26T07:53:55;21.00;99.90
12568;DHT22;6349;50.904;6.136;2023-06-26T07:55:57;21.10;99.90
12568;DHT22;6349;50.904;6.136;2023-06-26T07:57:58;21.20;99.90
12568;DHT22;6349;50.904;6.136;2023-06-26T08:00:00;21.20;99.90
12568;DHT22;6349;50.904;6.136;2023-06-26T08:02:01;21.20;99.90
12568;DHT22;6349;50.904;6.136;2023-06-26T08:04:02;21.20;99.90
12568;DHT22;6349;50.904;6.136;2023-06-26T08:06:02;21.10;99.90
12568;DHT22;6349;50.904;6.136;2023-06-26T08:08:04;21.30;99.90
12568;DHT22;6349;50.904;6.136;2023-06-26T08:10:07;21.40;99.90
12568;DHT22;6349;50.904;6.136;2023-06-26T08:12:07;21.40;99.90
12568;DHT22;6349;50.904;6.136;2023-06-26T08:14:08;21.30;99.90
12568;DHT22;6349;50.904;6.136;2023-06-26T08:16:10;21.40;99.90
12568;DHT22;6349;50.904;6.136;2023-06-26T08:18:12;21.40;99.90
12568;DHT22;6349;50.904;6.136;2023-06-26T08:20:13;21.40;99.90
12568;DHT22;6349;50.904;6.136;2023-06-26T08:22:15;21.40;99.90
12568;DHT22;6349;50.904;6.136;2023-06-26T08:24:16;21.50;99.90
12568;DHT22;6349;50.904;6.136;2023-06-26T08:26:18;21.40;99.90
12568;DHT22;6349;50.904;6.136;2023-06-26T08:28:21;21.40;99.90
12568;DHT22;6349;50.904;6.136;2023-06-26T08:30:23;21.30;99.90
12568;DHT22;6349;50.904;6.136;2023-06-26T08:32:28;21.40;99.90
12568;DHT22;6349;50.904;6.136;2023-06-26T08:34:28;21.50;99.90
12568;DHT22;6349;50.904;6.136;2023-06-26T08:36:29;21.40;99.90
12568;DHT22;6349;50.904;6.136;2023-06-26T08:38:31;21.50;99.90
12568;DHT22;6349;50.904;6.136;2023-06-26T08:40:33;21.70;99.90
12568;DHT22;6349;50.904;6.136;2023-06-26T08:42:34;21.60;99.90
12568;DHT22;6349;50.904;6.136;2023-06-26T08:44:36;21.60;99.90
12568;DHT22;6349;50.904;6.136;2023-06-26T08:46:37;21.70;99.90
12568;DHT22;6349;50.904;6.136;2023-06-26T08:48:39;21.70;99.90
12568;DHT22;6349;50.904;6.136;2023-06-26T08:50:41;21.80;99.90
12568;DHT22;6349;50.904;6.136;2023-06-26T08:52:43;21.80;99.90
12568;DHT22;6349;50.904;6.136;2023-06-26T08:54:51;21.80;99.90
12568;DHT22;6349;50.904;6.136;2023-06-26T08:56:52;21.80;99.90
12568;DHT22;6349;50.904;6.136;2023-06-26T08:58:54;21.90;99.90
12568;DHT22;6349;50.904;6.136;2023-06-26T09:00:56;21.90;99.90
12568;DHT22;6349;50.904;6.136;2023-06-26T09:02:59;21.90;99.90
12568;DHT22;6349;50.904;6.136;2023-06-26T09:05:02;21.90;99.90
12568;DHT22;6349;50.904;6.136;2023-06-26T09:07:04;22.00;99.90
12568;DHT22;6349;50.904;6.136;2023-06-26T09:09:06;22.00;99.90
12568;DHT22;6349;50.904;6.136;2023-06-26T09:11:09;22.00;99.90
12568;DHT22;6349;50.904;6.136;2023-06-26T09:13:10;22.00;99.90
12568;DHT22;6349;50.904;6.136;2023-06-26T09:15:14;22.00;99.90
12568;DHT22;6349;50.904;6.136;2023-06-26T09:17:17;22.00;99.90
12568;DHT22;6349;50.904;6.136;2023-06-26T09:19:18;22.10;99.90
12568;DHT22;6349;50.904;6.136;2023-06-26T09:21:19;22.20;99.90
12568;DHT22;6349;50.904;6.136;2023-06-26T09:23:21;22.40;99.90
12568;DHT22;6349;50.904;6.136;2023-06-26T09:25:23;22.40;99.90
12568;DHT22;6349;50.904;6.136;2023-06-26T09:27:24;22.40;99.90
12568;DHT22;6349;50.904;6.136;2023-06-26T09:29:25;22.50;99.90
12568;DHT22;6349;50.904;6.136;2023-06-26T09:31:26;22.40;99.90
12568;DHT22;6349;50.904;6.136;2023-06-26T09:33:33;22.40;99.90
12568;DHT22;6349;50.904;6.136;2023-06-26T09:35:35;22.50;99.90
12568;DHT22;6349;50.904;6.136;2023-06-26T09:37:36;22.60;99.90
12568;DHT22;6349;50.904;6.136;2023-06-26T09:39:37;22.40;99.90
12568;DHT22;6349;50.904;6.136;2023-06-26T09:41:40;22.40;99.90
12568;DHT22;6349;50.904;6.136;2023-06-26T09:43:50;22.50;99.90
12568;DHT22;6349;50.904;6.136;2023-06-26T09:45:52;22.50;99.90
12568;DHT22;6349;50.904;6.136;2023-06-26T09:47:54;22.60;99.90
12568;DHT22;6349;50.904;6.136;2023-06-26T09:49:55;22.90;99.90
12568;DHT22;6349;50.904;6.136;2023-06-26T09:51:56;22.80;99.90
12568;DHT22;6349;50.904;6.136;2023-06-26T09:53:59;22.70;99.90
12568;DHT22;6349;50.904;6.136;2023-06-26T09:56:07;22.70;99.90
12568;DHT22;6349;50.904;6.136;2023-06-26T09:58:16;22.90;99.90
12568;DHT22;6349;50.904;6.136;2023-06-26T10:00:18;23.10;99.90
12568;DHT22;6349;50.904;6.136;2023-06-26T10:02:20;23.10;99.90
12568;DHT22;6349;50.904;6.136;2023-06-26T10:04:21;23.10;99.90
12568;DHT22;6349;50.904;6.136;2023-06-26T10:06:27;23.00;99.90
12568;DHT22;6349;50.904;6.136;2023-06-26T10:08:29;22.90;99.90
12568;DHT22;6349;50.904;6.136;2023-06-26T10:10:34;23.00;99.90
12568;DHT22;6349;50.904;6.136;2023-06-26T10:12:37;23.10;99.90
12568;DHT22;6349;50.904;6.136;2023-06-26T10:14:41;23.10;99.90
12568;DHT22;6349;50.904;6.136;2023-06-26T10:16:43;23.20;99.90
12568;DHT22;6349;50.904;6.136;2023-06-26T10:18:44;23.10;99.90
12568;DHT22;6349;50.904;6.136;2023-06-26T10:20:48;23.10;99.90
12568;DHT22;6349;50.904;6.136;2023-06-26T10:22:49;23.30;99.90
12568;DHT22;6349;50.904;6.136;2023-06-26T10:24:51;23.30;99.90
12568;DHT22;6349;50.904;6.136;2023-06-26T10:26:59;23.40;99.90
12568;DHT22;6349;50.904;6.136;2023-06-26T10:29:00;23.40;99.90
12568;DHT22;6349;50.904;6.136;2023-06-26T10:31:04;23.40;99.90
12568;DHT22;6349;50.904;6.136;2023-06-26T10:33:06;23.40;99.90
12568;DHT22;6349;50.904;6.136;2023-06-26T10:35:08;23.40;99.90
12568;DHT22;6349;50.904;6.136;2023-06-26T10:37:12;23.40;99.90
12568;DHT22;6349;50.904;6.136;2023-06-26T10:39:14;23.40;99.90
12568;DHT22;6349;50.904;6.136;2023-06-26T10:41:14;23.40;99.90
12568;DHT22;6349;50.904;6.136;2023-06-26T10:43:16;23.60;99.90
12568;DHT22;6349;50.904;6.136;2023-06-26T10:45:22;23.70;99.90
12568;DHT22;6349;50.904;6.136;2023-06-26T10:47:32;23.70;99.90
12568;DHT22;6349;50.904;6.136;2023-06-26T10:49:35;23.50;99.90
12568;DHT22;6349;50.904;6.136;2023-06-26T10:51:36;23.40;99.90
12568;DHT22;6349;50.904;6.136;2023-06-26T10:53:37;23.50;99.90
12568;DHT22;6349;50.904;6.136;2023-06-26T10:55:41;23.70;99.90
12568;DHT22;6349;50.904;6.136;2023-06-26T10:57:46;23.60;99.90
12568;DHT22;6349;50.904;6.136;2023-06-26T10:59:46;23.60;99.90
12568;DHT22;6349;50.904;6.136;2023-06-26T11:01:58;23.70;99.90
12568;DHT22;6349;50.904;6.136;2023-06-26T11:06:09;23.90;99.90
12568;DHT22;6349;50.904;6.136;2023-06-26T11:08:11;24.00;99.90
12568;DHT22;6349;50.904;6.136;2023-06-26T11:10:16;24.10;99.90
12568;DHT22;6349;50.904;6.136;2023-06-26T11:12:41;24.10;99.90
12568;DHT22;6349;50.904;6.136;2023-06-26T11:14:45;24.10;99.90
12568;DHT22;6349;50.904;6.136;2023-06-26T11:16:46;24.00;99.90
12568;DHT22;6349;50.904;6.136;2023-06-26T11:18:49;23.90;99.90
12568;DHT22;6349;50.904;6.136;2023-06-26T11:20:50;23.90;99.90
12568;DHT22;6349;50.904;6.136;2023-06-26T11:22:52;23.80;99.90
12568;DHT22;6349;50.904;6.136;2023-06-26T11:24:54;23.90;99.90
12568;DHT22;6349;50.904;6.136;2023-06-26T11:27:00;24.10;99.90
12568;DHT22;6349;50.904;6.136;2023-06-26T11:29:00;24.20;99.90
12568;DHT22;6349;50.904;6.136;2023-06-26T11:31:01;24.30;99.90
12568;DHT22;6349;50.904;6.136;2023-06-26T11:33:09;24.30;99.90
12568;DHT22;6349;50.904;6.136;2023-06-26T11:35:09;24.20;99.90
12568;DHT22;6349;50.904;6.136;2023-06-26T11:37:10;24.00;99.90
12568;DHT22;6349;50.904;6.136;2023-06-26T11:39:13;23.90;99.90
12568;DHT22;6349;50.904;6.136;2023-06-26T11:41:17;23.90;99.90
12568;DHT22;6349;50.904;6.136;2023-06-26T11:43:17;23.70;99.90
12568;DHT22;6349;50.904;6.136;2023-06-26T11:45:20;23.60;99.90
12568;DHT22;6349;50.904;6.136;2023-06-26T11:47:21;23.50;99.90
12568;DHT22;6349;50.904;6.136;2023-06-26T11:49:23;23.60;99.90
12568;DHT22;6349;50.904;6.136;2023-06-26T11:51:28;23.40;99.90
12568;DHT22;6349;50.904;6.136;2023-06-26T11:53:30;23.50;99.90
12568;DHT22;6349;50.904;6.136;2023-06-26T11:55:41;23.50;99.90
12568;DHT22;6349;50.904;6.136;2023-06-26T11:57:41;23.80;99.90
12568;DHT22;6349;50.904;6.136;2023-06-26T11:59:44;24.00;99.90
12568;DHT22;6349;50.904;6.136;2023-06-26T12:01:44;24.10;99.90
12568;DHT22;6349;50.904;6.136;2023-06-26T12:03:45;24.30;99.90
12568;DHT22;6349;50.904;6.136;2023-06-26T12:05:46;24.30;99.90
12568;DHT22;6349;50.904;6.136;2023-06-26T12:07:48;24.50;99.90
12568;DHT22;6349;50.904;6.136;2023-06-26T12:09:51;24.40;99.90
12568;DHT22;6349;50.904;6.136;2023-06-26T12:11:55;24.30;99.90
12568;DHT22;6349;50.904;6.136;2023-06-26T12:13:56;24.10;99.90
12568;DHT22;6349;50.904;6.136;2023-06-26T12:15:58;24.10;99.90
12568;DHT22;6349;50.904;6.136;2023-06-26T12:17:59;24.10;99.90
12568;DHT22;6349;50.904;6.136;2023-06-26T12:19:59;24.00;99.90
12568;DHT22;6349;50.904;6.136;2023-06-26T12:22:06;23.90;99.90
12568;DHT22;6349;50.904;6.136;2023-06-26T12:24:10;23.70;99.90
12568;DHT22;6349;50.904;6.136;2023-06-26T12:26:17;23.60;99.90
12568;DHT22;6349;50.904;6.136;2023-06-26T12:28:18;23.50;99.90
12568;DHT22;6349;50.904;6.136;2023-06-26T12:30:19;23.40;99.90
12568;DHT22;6349;50.904;6.136;2023-06-26T12:32:21;23.60;99.90
12568;DHT22;6349;50.904;6.136;2023-06-26T12:34:27;23.70;99.90
12568;DHT22;6349;50.904;6.136;2023-06-26T12:36:40;23.90;99.90
12568;DHT22;6349;50.904;6.136;2023-06-26T12:38:42;24.10;99.90
12568;DHT22;6349;50.904;6.136;2023-06-26T12:40:45;24.30;99.90
12568;DHT22;6349;50.904;6.136;2023-06-26T12:42:47;24.30;99.90
12568;DHT22;6349;50.904;6.136;2023-06-26T12:44:48;24.30;99.90
12568;DHT22;6349;50.904;6.136;2023-06-26T12:46:53;24.30;99.90
12568;DHT22;6349;50.904;6.136;2023-06-26T12:48:54;24.30;99.90
12568;DHT22;6349;50.904;6.136;2023-06-26T12:50:56;24.10;99.90
12568;DHT22;6349;50.904;6.136;2023-06-26T12:52:58;23.90;99.90
12568;DHT22;6349;50.904;6.136;2023-06-26T12:55:00;23.80;99.90
12568;DHT22;6349;50.904;6.136;2023-06-26T12:57:00;23.80;99.90
12568;DHT22;6349;50.904;6.136;2023-06-26T12:59:01;23.90;99.90
12568;DHT22;6349;50.904;6.136;2023-06-26T13:01:05;24.10;99.90
12568;DHT22;6349;50.904;6.136;2023-06-26T13:03:05;24.30;99.90
12568;DHT22;6349;50.904;6.136;2023-06-26T13:05:06;24.50;99.90
12568;DHT22;6349;50.904;6.136;2023-06-26T13:07:11;24.30;99.90
12568;DHT22;6349;50.904;6.136;2023-06-26T13:09:13;24.20;99.90
12568;DHT22;6349;50.904;6.136;2023-06-26T13:11:16;24.00;99.90
12568;DHT22;6349;50.904;6.136;2023-06-26T13:13:19;23.90;99.90